sensor_id;sensor_type;location;lat;lon;timestamp;P1;durP1;ratioP1;P2;durP2;ratioP2
22841;SDS011;11587;47.064;15.444;2023-03-25T00:00:04;0.10;;;0.10;;
22841;SDS011;11587;47.064;15.444;2023-03-25T00:02:39;0.20;;;0.20;;
22841;SDS011;11587;47.064;15.444;2023-03-25T00:05:05;0.10;;;0.10;;
22841;SDS011;11587;47.064;15.444;2023-03-25T00:07:31;0.20;;;0.20;;
22841;SDS011;11587;47.064;15.444;2023-03-25T00:09:57;0.10;;;0.10;;
22841;SDS011;11587;47.064;15.444;2023-03-25T00:12:23;0.20;;;0.20;;
22841;SDS011;11587;47.064;15.444;2023-03-25T00:14:50;0.20;;;0.20;;
22841;SDS011;11587;47.064;15.444;2023-03-25T00:17:20;0.20;;;0.20;;
22841;SDS011;11587;47.064;15.444;2023-03-25T00:19:46;0.13;;;0.13;;
22841;SDS011;11587;47.064;15.444;2023-03-25T00:22:14;0.20;;;0.20;;
22841;SDS011;11587;47.064;15.444;2023-03-25T00:24:40;0.20;;;0.20;;
22841;SDS011;11587;47.064;15.444;2023-03-25T00:27:06;0.20;;;0.20;;
22841;SDS011;11587;47.064;15.444;2023-03-25T00:29:32;0.20;;;0.20;;
22841;SDS011;11587;47.064;15.444;2023-03-25T00:31:58;0.30;;;0.30;;
22841;SDS011;11587;47.064;15.444;2023-03-25T00:34:24;0.20;;;0.20;;
22841;SDS011;11587;47.064;15.444;2023-03-25T00:36:50;0.20;;;0.20;;
22841;SDS011;11587;47.064;15.444;2023-03-25T00:39:16;0.20;;;0.20;;
22841;SDS011;11587;47.064;15.444;2023-03-25T00:41:42;0.10;;;0.10;;
22841;SDS011;11587;47.064;15.444;2023-03-25T00:44:09;0.20;;;0.20;;
22841;SDS011;11587;47.064;15.444;2023-03-25T00:46:41;0.20;;;0.20;;
22841;SDS011;11587;47.064;15.444;2023-03-25T00:49:07;0.20;;;0.20;;
22841;SDS011;11587;47.064;15.444;2023-03-25T00:51:33;0.10;;;0.10;;
22841;SDS011;11587;47.064;15.444;2023-03-25T00:53:59;0.10;;;0.10;;
22841;SDS011;11587;47.064;15.444;2023-03-25T00:56:26;0.10;;;0.10;;
22841;SDS011;11587;47.064;15.444;2023-03-25T00:58:53;0.10;;;0.10;;
22841;SDS011;11587;47.064;15.444;2023-03-25T01:01:21;0.20;;;0.20;;
22841;SDS011;11587;47.064;15.444;2023-03-25T01:03:56;0.10;;;0.10;;
22841;SDS011;11587;47.064;15.444;2023-03-25T01:06:23;0.17;;;0.17;;
22841;SDS011;11587;47.064;15.444;2023-03-25T01:08:52;0.25;;;0.25;;
22841;SDS011;11587;47.064;15.444;2023-03-25T01:11:19;0.20;;;0.20;;
22841;SDS011;11587;47.064;15.444;2023-03-25T01:13:47;0.30;;;0.30;;
22841;SDS011;11587;47.064;15.444;2023-03-25T01:16:13;0.30;;;0.30;;
22841;SDS011;11587;47.064;15.444;2023-03-25T01:18:39;0.40;;;0.40;;
22841;SDS011;11587;47.064;15.444;2023-03-25T01:21:05;0.30;;;0.30;;
22841;SDS011;11587;47.064;15.444;2023-03-25T01:23:31;0.20;;;0.20;;
22841;SDS011;11587;47.064;15.444;2023-03-25T01:25:57;0.30;;;0.30;;
22841;SDS011;11587;47.064;15.444;2023-03-25T01:28:23;0.30;;;0.30;;
22841;SDS011;11587;47.064;15.444;2023-03-25T01:30:49;0.30;;;0.30;;
22841;SDS011;11587;47.064;15.444;2023-03-25T01:33:15;0.30;;;0.30;;
22841;SDS011;11587;47.064;15.444;2023-03-25T01:35:41;0.30;;;0.30;;
22841;SDS011;11587;47.064;15.444;2023-03-25T01:38:07;0.30;;;0.30;;
22841;SDS011;11587;47.064;15.444;2023-03-25T01:40:33;0.20;;;0.20;;
22841;SDS011;11587;47.064;15.444;2023-03-25T01:43:00;0.20;;;0.20;;
22841;SDS011;11587;47.064;15.444;2023-03-25T01:45:29;0.30;;;0.30;;
22841;SDS011;11587;47.064;15.444;2023-03-25T01:48:05;0.30;;;0.30;;
22841;SDS011;11587;47.064;15.444;2023-03-25T01:50:34;0.28;;;0.28;;
22841;SDS011;11587;47.064;15.444;2023-03-25T01:53:02;0.30;;;0.30;;
22841;SDS011;11587;47.064;15.444;2023-03-25T01:55:30;0.20;;;0.20;;
22841;SDS011;11587;47.064;15.444;2023-03-25T01:57:58;0.28;;;0.28;;
22841;SDS011;11587;47.064;15.444;2023-03-25T02:00:26;0.30;;;0.30;;
22841;SDS011;11587;47.064;15.444;2023-03-25T02:02:52;0.30;;;0.30;;
22841;SDS011;11587;47.064;15.444;2023-03-25T02:05:24;0.30;;;0.30;;
22841;SDS011;11587;47.064;15.444;2023-03-25T02:07:53;0.30;;;0.30;;
22841;SDS011;11587;47.064;15.444;2023-03-25T02:10:21;0.30;;;0.30;;
22841;SDS011;11587;47.064;15.444;2023-03-25T02:12:48;0.30;;;0.30;;
22841;SDS011;11587;47.064;15.444;2023-03-25T02:15:15;0.30;;;0.30;;
22841;SDS011;11587;47.064;15.444;2023-03-25T02:28:28;0.30;;;0.30;;
22841;SDS011;11587;47.064;15.444;2023-03-25T02:44:06;0.30;;;0.30;;
22841;SDS011;11587;47.064;15.444;2023-03-25T02:46:34;0.20;;;0.20;;
22841;SDS011;11587;47.064;15.444;2023-03-25T02:49:11;0.20;;;0.20;;
22841;SDS011;11587;47.064;15.444;2023-03-25T02:51:40;0.30;;;0.30;;
22841;SDS011;11587;47.064;15.444;2023-03-25T02:54:10;0.30;;;0.30;;
22841;SDS011;11587;47.064;15.444;2023-03-25T02:56:37;0.30;;;0.30;;
22841;SDS011;11587;47.064;15.444;2023-03-25T02:59:05;0.28;;;0.28;;
22841;SDS011;11587;47.064;15.444;2023-03-25T03:01:32;0.20;;;0.20;;
22841;SDS011;11587;47.064;15.444;2023-03-25T03:03:58;0.20;;;0.20;;
22841;SDS011;11587;47.064;15.444;2023-03-25T03:06:25;0.20;;;0.20;;
22841;SDS011;11587;47.064;15.444;2023-03-25T03:09:00;0.20;;;0.20;;
22841;SDS011;11587;47.064;15.444;2023-03-25T03:11:31;0.20;;;0.20;;
22841;SDS011;11587;47.064;15.444;2023-03-25T03:26:49;0.10;;;0.10;;
22841;SDS011;11587;47.064;15.444;2023-03-25T03:32:12;0.20;;;0.20;;
22841;SDS011;11587;47.064;15.444;2023-03-25T03:34:47;0.20;;;0.20;;
22841;SDS011;11587;47.064;15.444;2023-03-25T03:37:14;0.20;;;0.20;;
22841;SDS011;11587;47.064;15.444;2023-03-25T03:39:42;0.10;;;0.10;;
22841;SDS011;11587;47.064;15.444;2023-03-25T03:42:14;0.20;;;0.20;;
22841;SDS011;11587;47.064;15.444;2023-03-25T03:44:43;0.10;;;0.10;;
22841;SDS011;11587;47.064;15.444;2023-03-25T03:47:12;0.20;;;0.20;;
22841;SDS011;11587;47.064;15.444;2023-03-25T03:49:41;0.10;;;0.10;;
22841;SDS011;11587;47.064;15.444;2023-03-25T03:52:10;0.20;;;0.20;;
22841;SDS011;11587;47.064;15.444;2023-03-25T03:54:48;0.20;;;0.20;;
22841;SDS011;11587;47.064;15.444;2023-03-25T04:02:26;0.20;;;0.20;;
22841;SDS011;11587;47.064;15.444;2023-03-25T04:04:56;0.10;;;0.10;;
22841;SDS011;11587;47.064;15.444;2023-03-25T04:07:59;0.10;;;0.10;;
22841;SDS011;11587;47.064;15.444;2023-03-25T04:10:22;0.17;;;0.17;;
22841;SDS011;11587;47.064;15.444;2023-03-25T04:12:53;0.10;;;0.10;;
22841;SDS011;11587;47.064;15.444;2023-03-25T04:15:20;0.10;;;0.10;;
22841;SDS011;11587;47.064;15.444;2023-03-25T04:17:46;0.10;;;0.10;;
22841;SDS011;11587;47.064;15.444;2023-03-25T04:20:13;0.20;;;0.20;;
22841;SDS011;11587;47.064;15.444;2023-03-25T04:22:40;0.20;;;0.20;;
22841;SDS011;11587;47.064;15.444;2023-03-25T04:25:09;0.10;;;0.10;;
22841;SDS011;11587;47.064;15.444;2023-03-25T04:27:36;0.10;;;0.10;;
22841;SDS011;11587;47.064;15.444;2023-03-25T04:30:05;0.30;;;0.30;;
22841;SDS011;11587;47.064;15.444;2023-03-25T04:32:31;0.28;;;0.28;;
22841;SDS011;11587;47.064;15.444;2023-03-25T04:34:58;0.20;;;0.20;;
22841;SDS011;11587;47.064;15.444;2023-03-25T04:37:28;0.20;;;0.20;;
22841;SDS011;11587;47.064;15.444;2023-03-25T04:39:57;0.20;;;0.20;;
22841;SDS011;11587;47.064;15.444;2023-03-25T04:42:25;0.10;;;0.10;;
22841;SDS011;11587;47.064;15.444;2023-03-25T04:44:56;0.20;;;0.20;;
22841;SDS011;11587;47.064;15.444;2023-03-25T04:47:22;0.10;;;0.10;;
22841;SDS011;11587;47.064;15.444;2023-03-25T04:49:49;0.20;;;0.20;;
22841;SDS011;11587;47.064;15.444;2023-03-25T04:52:15;0.20;;;0.20;;
22841;SDS011;11587;47.064;15.444;2023-03-25T04:54:41;0.30;;;0.30;;
22841;SDS011;11587;47.064;15.444;2023-03-25T04:57:09;0.20;;;0.20;;
22841;SDS011;11587;47.064;15.444;2023-03-25T04:59:35;0.20;;;0.20;;
22841;SDS011;11587;47.064;15.444;2023-03-25T05:02:01;0.20;;;0.20;;
22841;SDS011;11587;47.064;15.444;2023-03-25T05:04:29;0.28;;;0.28;;
22841;SDS011;11587;47.064;15.444;2023-03-25T05:06:56;0.20;;;0.20;;
22841;SDS011;11587;47.064;15.444;2023-03-25T05:09:22;0.30;;;0.30;;
22841;SDS011;11587;47.064;15.444;2023-03-25T05:11:49;0.30;;;0.30;;
22841;SDS011;11587;47.064;15.444;2023-03-25T05:14:16;0.30;;;0.30;;
22841;SDS011;11587;47.064;15.444;2023-03-25T05:16:42;0.30;;;0.30;;
22841;SDS011;11587;47.064;15.444;2023-03-25T05:19:08;0.30;;;0.30;;
22841;SDS011;11587;47.064;15.444;2023-03-25T05:21:35;0.30;;;0.30;;
22841;SDS011;11587;47.064;15.444;2023-03-25T05:24:08;0.30;;;0.30;;
22841;SDS011;11587;47.064;15.444;2023-03-25T05:26:36;0.30;;;0.30;;
22841;SDS011;11587;47.064;15.444;2023-03-25T05:29:04;0.30;;;0.30;;
22841;SDS011;11587;47.064;15.444;2023-03-25T05:31:30;0.30;;;0.30;;
22841;SDS011;11587;47.064;15.444;2023-03-25T05:33:56;0.30;;;0.30;;
22841;SDS011;11587;47.064;15.444;2023-03-25T05:36:22;0.30;;;0.30;;
22841;SDS011;11587;47.064;15.444;2023-03-25T05:38:51;0.20;;;0.20;;
22841;SDS011;11587;47.064;15.444;2023-03-25T05:41:18;0.30;;;0.30;;
22841;SDS011;11587;47.064;15.444;2023-03-25T05:43:45;0.20;;;0.20;;
22841;SDS011;11587;47.064;15.444;2023-03-25T05:46:15;0.30;;;0.30;;
22841;SDS011;11587;47.064;15.444;2023-03-25T05:48:41;0.20;;;0.20;;
22841;SDS011;11587;47.064;15.444;2023-03-25T05:51:12;0.30;;;0.30;;
22841;SDS011;11587;47.064;15.444;2023-03-25T05:53:39;0.30;;;0.30;;
22841;SDS011;11587;47.064;15.444;2023-03-25T05:56:07;0.28;;;0.28;;
22841;SDS011;11587;47.064;15.444;2023-03-25T05:58:33;0.30;;;0.30;;
22841;SDS011;11587;47.064;15.444;2023-03-25T06:01:00;0.30;;;0.30;;
22841;SDS011;11587;47.064;15.444;2023-03-25T06:03:29;0.30;;;0.30;;
22841;SDS011;11587;47.064;15.444;2023-03-25T06:05:58;0.30;;;0.30;;
22841;SDS011;11587;47.064;15.444;2023-03-25T06:08:25;0.30;;;0.30;;
22841;SDS011;11587;47.064;15.444;2023-03-25T06:10:56;0.30;;;0.30;;
22841;SDS011;11587;47.064;15.444;2023-03-25T06:13:23;0.30;;;0.30;;
22841;SDS011;11587;47.064;15.444;2023-03-25T06:15:49;0.20;;;0.20;;
22841;SDS011;11587;47.064;15.444;2023-03-25T06:18:20;0.30;;;0.30;;
22841;SDS011;11587;47.064;15.444;2023-03-25T06:20:48;0.20;;;0.20;;
22841;SDS011;11587;47.064;15.444;2023-03-25T06:23:15;0.30;;;0.30;;
22841;SDS011;11587;47.064;15.444;2023-03-25T06:25:42;0.20;;;0.20;;
22841;SDS011;11587;47.064;15.444;2023-03-25T06:28:08;0.30;;;0.30;;
22841;SDS011;11587;47.064;15.444;2023-03-25T06:30:34;0.20;;;0.20;;
22841;SDS011;11587;47.064;15.444;2023-03-25T06:33:00;0.20;;;0.20;;
22841;SDS011;11587;47.064;15.444;2023-03-25T06:35:27;0.25;;;0.25;;
22841;SDS011;11587;47.064;15.444;2023-03-25T06:37:53;0.20;;;0.20;;
22841;SDS011;11587;47.064;15.444;2023-03-25T06:40:19;0.20;;;0.20;;
22841;SDS011;11587;47.064;15.444;2023-03-25T06:42:46;0.20;;;0.20;;
22841;SDS011;11587;47.064;15.444;2023-03-25T06:45:12;0.20;;;0.20;;
22841;SDS011;11587;47.064;15.444;2023-03-25T06:47:40;0.20;;;0.20;;
22841;SDS011;11587;47.064;15.444;2023-03-25T06:50:06;0.20;;;0.20;;
22841;SDS011;11587;47.064;15.444;2023-03-25T06:52:32;0.20;;;0.20;;
22841;SDS011;11587;47.064;15.444;2023-03-25T06:54:58;0.20;;;0.20;;
22841;SDS011;11587;47.064;15.444;2023-03-25T06:57:24;0.20;;;0.20;;
22841;SDS011;11587;47.064;15.444;2023-03-25T06:59:50;0.20;;;0.20;;
22841;SDS011;11587;47.064;15.444;2023-03-25T07:02:16;0.20;;;0.20;;
22841;SDS011;11587;47.064;15.444;2023-03-25T07:04:42;0.20;;;0.20;;
22841;SDS011;11587;47.064;15.444;2023-03-25T07:07:08;0.20;;;0.20;;
22841;SDS011;11587;47.064;15.444;2023-03-25T07:09:34;0.20;;;0.20;;
22841;SDS011;11587;47.064;15.444;2023-03-25T07:12:00;0.20;;;0.20;;
22841;SDS011;11587;47.064;15.444;2023-03-25T07:14:26;0.20;;;0.20;;
22841;SDS011;11587;47.064;15.444;2023-03-25T07:16:53;0.20;;;0.20;;
22841;SDS011;11587;47.064;15.444;2023-03-25T07:19:19;0.30;;;0.30;;
22841;SDS011;11587;47.064;15.444;2023-03-25T07:21:45;0.20;;;0.20;;
22841;SDS011;11587;47.064;15.444;2023-03-25T07:24:11;0.20;;;0.20;;
22841;SDS011;11587;47.064;15.444;2023-03-25T07:26:37;0.20;;;0.20;;
22841;SDS011;11587;47.064;15.444;2023-03-25T07:29:03;0.20;;;0.20;;
22841;SDS011;11587;47.064;15.444;2023-03-25T07:31:30;0.20;;;0.20;;
22841;SDS011;11587;47.064;15.444;2023-03-25T07:33:56;0.30;;;0.30;;
22841;SDS011;11587;47.064;15.444;2023-03-25T07:36:23;0.20;;;0.20;;
22841;SDS011;11587;47.064;15.444;2023-03-25T07:38:50;0.20;;;0.20;;
22841;SDS011;11587;47.064;15.444;2023-03-25T07:41:17;0.20;;;0.20;;
22841;SDS011;11587;47.064;15.444;2023-03-25T07:43:43;0.20;;;0.20;;
22841;SDS011;11587;47.064;15.444;2023-03-25T07:46:10;0.20;;;0.20;;
22841;SDS011;11587;47.064;15.444;2023-03-25T07:48:36;0.20;;;0.20;;
22841;SDS011;11587;47.064;15.444;2023-03-25T07:51:02;0.20;;;0.20;;
22841;SDS011;11587;47.064;15.444;2023-03-25T07:53:28;0.20;;;0.20;;
22841;SDS011;11587;47.064;15.444;2023-03-25T07:55:54;0.20;;;0.20;;
22841;SDS011;11587;47.064;15.444;2023-03-25T07:58:20;0.20;;;0.20;;
22841;SDS011;11587;47.064;15.444;2023-03-25T08:00:46;0.20;;;0.20;;
22841;SDS011;11587;47.064;15.444;2023-03-25T08:03:12;0.20;;;0.20;;
22841;SDS011;11587;47.064;15.444;2023-03-25T08:05:43;0.20;;;0.20;;
22841;SDS011;11587;47.064;15.444;2023-03-25T08:08:10;0.20;;;0.20;;
22841;SDS011;11587;47.064;15.444;2023-03-25T08:10:36;0.20;;;0.20;;
22841;SDS011;11587;47.064;15.444;2023-03-25T08:13:03;0.20;;;0.20;;
22841;SDS011;11587;47.064;15.444;2023-03-25T08:15:29;0.10;;;0.10;;
22841;SDS011;11587;47.064;15.444;2023-03-25T08:17:55;0.20;;;0.20;;
22841;SDS011;11587;47.064;15.444;2023-03-25T08:20:21;0.10;;;0.10;;
22841;SDS011;11587;47.064;15.444;2023-03-25T08:22:47;0.15;;;0.15;;
22841;SDS011;11587;47.064;15.444;2023-03-25T08:25:13;0.20;;;0.20;;
22841;SDS011;11587;47.064;15.444;2023-03-25T08:27:39;0.10;;;0.10;;
22841;SDS011;11587;47.064;15.444;2023-03-25T08:30:05;0.13;;;0.13;;
22841;SDS011;11587;47.064;15.444;2023-03-25T08:32:33;0.20;;;0.20;;
22841;SDS011;11587;47.064;15.444;2023-03-25T08:35:00;0.20;;;0.20;;
22841;SDS011;11587;47.064;15.444;2023-03-25T08:37:29;0.20;;;0.20;;
22841;SDS011;11587;47.064;15.444;2023-03-25T08:39:59;0.20;;;0.20;;
22841;SDS011;11587;47.064;15.444;2023-03-25T08:42:25;0.20;;;0.20;;
22841;SDS011;11587;47.064;15.444;2023-03-25T08:44:51;0.20;;;0.20;;
22841;SDS011;11587;47.064;15.444;2023-03-25T08:47:17;0.20;;;0.20;;
22841;SDS011;11587;47.064;15.444;2023-03-25T08:49:43;0.20;;;0.20;;
22841;SDS011;11587;47.064;15.444;2023-03-25T08:52:09;0.20;;;0.20;;
22841;SDS011;11587;47.064;15.444;2023-03-25T08:54:35;0.20;;;0.20;;
22841;SDS011;11587;47.064;15.444;2023-03-25T08:57:01;0.20;;;0.20;;
22841;SDS011;11587;47.064;15.444;2023-03-25T08:59:28;0.20;;;0.20;;
22841;SDS011;11587;47.064;15.444;2023-03-25T09:01:54;0.10;;;0.10;;
22841;SDS011;11587;47.064;15.444;2023-03-25T09:04:20;0.20;;;0.20;;
22841;SDS011;11587;47.064;15.444;2023-03-25T09:06:46;0.10;;;0.10;;
22841;SDS011;11587;47.064;15.444;2023-03-25T09:09:13;0.10;;;0.10;;
22841;SDS011;11587;47.064;15.444;2023-03-25T09:11:39;0.10;;;0.10;;
22841;SDS011;11587;47.064;15.444;2023-03-25T09:14:05;0.10;;;0.10;;
22841;SDS011;11587;47.064;15.444;2023-03-25T09:16:31;0.10;;;0.10;;
22841;SDS011;11587;47.064;15.444;2023-03-25T09:18:58;0.20;;;0.20;;
22841;SDS011;11587;47.064;15.444;2023-03-25T09:21:24;0.10;;;0.10;;
22841;SDS011;11587;47.064;15.444;2023-03-25T09:23:50;0.10;;;0.10;;
22841;SDS011;11587;47.064;15.444;2023-03-25T09:26:16;0.10;;;0.10;;
22841;SDS011;11587;47.064;15.444;2023-03-25T09:28:43;0.10;;;0.10;;
22841;SDS011;11587;47.064;15.444;2023-03-25T09:31:09;0.10;;;0.10;;
22841;SDS011;11587;47.064;15.444;2023-03-25T09:33:36;0.10;;;0.10;;
22841;SDS011;11587;47.064;15.444;2023-03-25T09:36:02;0.10;;;0.10;;
22841;SDS011;11587;47.064;15.444;2023-03-25T09:38:28;0.15;;;0.15;;
22841;SDS011;11587;47.064;15.444;2023-03-25T09:40:54;0.10;;;0.10;;
22841;SDS011;11587;47.064;15.444;2023-03-25T09:45:50;0.20;;;0.20;;
22841;SDS011;11587;47.064;15.444;2023-03-25T09:48:36;0.20;;;0.20;;
22841;SDS011;11587;47.064;15.444;2023-03-25T09:51:13;0.10;;;0.10;;
22841;SDS011;11587;47.064;15.444;2023-03-25T09:56:22;0.10;;;0.10;;
22841;SDS011;11587;47.064;15.444;2023-03-25T09:58:53;0.20;;;0.20;;
22841;SDS011;11587;47.064;15.444;2023-03-25T10:01:38;0.20;;;0.20;;
22841;SDS011;11587;47.064;15.444;2023-03-25T10:22:11;0.20;;;0.20;;
22841;SDS011;11587;47.064;15.444;2023-03-25T10:24:52;0.20;;;0.20;;
22841;SDS011;11587;47.064;15.444;2023-03-25T10:27:21;0.20;;;0.20;;
22841;SDS011;11587;47.064;15.444;2023-03-25T10:29:55;0.20;;;0.20;;
22841;SDS011;11587;47.064;15.444;2023-03-25T10:37:57;0.10;;;0.10;;
22841;SDS011;11587;47.064;15.444;2023-03-25T10:40:33;0.20;;;0.20;;
22841;SDS011;11587;47.064;15.444;2023-03-25T10:45:28;0.20;;;0.20;;
22841;SDS011;11587;47.064;15.444;2023-03-25T10:48:06;0.10;;;0.10;;
22841;SDS011;11587;47.064;15.444;2023-03-25T10:50:35;0.20;;;0.20;;
22841;SDS011;11587;47.064;15.444;2023-03-25T10:53:02;0.10;;;0.10;;
22841;SDS011;11587;47.064;15.444;2023-03-25T10:55:30;0.20;;;0.20;;
22841;SDS011;11587;47.064;15.444;2023-03-25T10:57:58;0.20;;;0.20;;
22841;SDS011;11587;47.064;15.444;2023-03-25T11:00:25;0.20;;;0.20;;
22841;SDS011;11587;47.064;15.444;2023-03-25T11:02:54;0.17;;;0.17;;
22841;SDS011;11587;47.064;15.444;2023-03-25T11:05:24;0.20;;;0.20;;
22841;SDS011;11587;47.064;15.444;2023-03-25T11:07:52;0.10;;;0.10;;
22841;SDS011;11587;47.064;15.444;2023-03-25T11:12:45;0.10;;;0.10;;
22841;SDS011;11587;47.064;15.444;2023-03-25T11:15:15;0.20;;;0.20;;
22841;SDS011;11587;47.064;15.444;2023-03-25T11:17:43;0.15;;;0.15;;
22841;SDS011;11587;47.064;15.444;2023-03-25T11:20:18;0.20;;;0.20;;
22841;SDS011;11587;47.064;15.444;2023-03-25T11:22:46;0.10;;;0.10;;
22841;SDS011;11587;47.064;15.444;2023-03-25T11:25:23;0.10;;;0.10;;
22841;SDS011;11587;47.064;15.444;2023-03-25T11:27:51;0.20;;;0.20;;
22841;SDS011;11587;47.064;15.444;2023-03-25T11:30:19;0.20;;;0.20;;
22841;SDS011;11587;47.064;15.444;2023-03-25T11:32:55;0.20;;;0.20;;
22841;SDS011;11587;47.064;15.444;2023-03-25T11:35:24;0.10;;;0.10;;
22841;SDS011;11587;47.064;15.444;2023-03-25T11:37:57;0.20;;;0.20;;
22841;SDS011;11587;47.064;15.444;2023-03-25T11:40:24;0.10;;;0.10;;
22841;SDS011;11587;47.064;15.444;2023-03-25T11:42:51;0.10;;;0.10;;
22841;SDS011;11587;47.064;15.444;2023-03-25T11:45:19;0.10;;;0.10;;
22841;SDS011;11587;47.064;15.444;2023-03-25T11:47:45;0.10;;;0.10;;
22841;SDS011;11587;47.064;15.444;2023-03-25T11:50:18;0.10;;;0.10;;
22841;SDS011;11587;47.064;15.444;2023-03-25T11:52:46;0.20;;;0.20;;
22841;SDS011;11587;47.064;15.444;2023-03-25T11:55:26;0.20;;;0.20;;
22841;SDS011;11587;47.064;15.444;2023-03-25T11:57:54;0.17;;;0.17;;
22841;SDS011;11587;47.064;15.444;2023-03-25T12:03:36;0.10;;;0.10;;
22841;SDS011;11587;47.064;15.444;2023-03-25T12:05:37;0.20;;;0.20;;
22841;SDS011;11587;47.064;15.444;2023-03-25T12:08:11;0.10;;;0.10;;
22841;SDS011;11587;47.064;15.444;2023-03-25T12:26:09;0.20;;;0.20;;
22841;SDS011;11587;47.064;15.444;2023-03-25T12:39:01;0.10;;;0.10;;
22841;SDS011;11587;47.064;15.444;2023-03-25T12:50:10;0.10;;;0.10;;
22841;SDS011;11587;47.064;15.444;2023-03-25T12:52:21;0.10;;;0.10;;
22841;SDS011;11587;47.064;15.444;2023-03-25T13:00:03;0.10;;;0.10;;
22841;SDS011;11587;47.064;15.444;2023-03-25T13:02:47;0.10;;;0.10;;
22841;SDS011;11587;47.064;15.444;2023-03-25T13:05:38;0.10;;;0.10;;
22841;SDS011;11587;47.064;15.444;2023-03-25T13:08:07;0.10;;;0.10;;
22841;SDS011;11587;47.064;15.444;2023-03-25T13:10:35;0.10;;;0.10;;
22841;SDS011;11587;47.064;15.444;2023-03-25T13:13:02;0.10;;;0.10;;
22841;SDS011;11587;47.064;15.444;2023-03-25T13:15:34;0.10;;;0.10;;
22841;SDS011;11587;47.064;15.444;2023-03-25T13:18:02;0.00;;;0.00;;
22841;SDS011;11587;47.064;15.444;2023-03-25T13:20:33;0.10;;;0.10;;
22841;SDS011;11587;47.064;15.444;2023-03-25T13:23:00;0.10;;;0.10;;
22841;SDS011;11587;47.064;15.444;2023-03-25T13:27:58;0.10;;;0.10;;
22841;SDS011;11587;47.064;15.444;2023-03-25T13:30:30;0.10;;;0.10;;
22841;SDS011;11587;47.064;15.444;2023-03-25T13:32:57;0.00;;;0.00;;
22841;SDS011;11587;47.064;15.444;2023-03-25T13:35:36;0.00;;;0.00;;
22841;SDS011;11587;47.064;15.444;2023-03-25T13:38:25;0.00;;;0.00;;
22841;SDS011;11587;47.064;15.444;2023-03-25T13:40:57;0.00;;;0.00;;
22841;SDS011;11587;47.064;15.444;2023-03-25T13:43:34;0.00;;;0.00;;
22841;SDS011;11587;47.064;15.444;2023-03-25T13:46:09;0.00;;;0.00;;
22841;SDS011;11587;47.064;15.444;2023-03-25T13:48:41;0.00;;;0.00;;
22841;SDS011;11587;47.064;15.444;2023-03-25T13:51:11;0.00;;;0.00;;
22841;SDS011;11587;47.064;15.444;2023-03-25T14:09:41;0.00;;;0.00;;
22841;SDS011;11587;47.064;15.444;2023-03-25T14:12:02;0.00;;;0.00;;
22841;SDS011;11587;47.064;15.444;2023-03-25T14:14:37;0.00;;;0.00;;
22841;SDS011;11587;47.064;15.444;2023-03-25T14:17:03;0.00;;;0.00;;
22841;SDS011;11587;47.064;15.444;2023-03-25T14:19:31;0.00;;;0.00;;
22841;SDS011;11587;47.064;15.444;2023-03-25T14:21:58;0.00;;;0.00;;
22841;SDS011;11587;47.064;15.444;2023-03-25T14:24:31;0.00;;;0.00;;
22841;SDS011;11587;47.064;15.444;2023-03-25T14:27:00;0.00;;;0.00;;
22841;SDS011;11587;47.064;15.444;2023-03-25T14:34:28;0.00;;;0.00;;
22841;SDS011;11587;47.064;15.444;2023-03-25T14:44:23;0.00;;;0.00;;
22841;SDS011;11587;47.064;15.444;2023-03-25T14:46:59;0.00;;;0.00;;
22841;SDS011;11587;47.064;15.444;2023-03-25T14:49:45;0.00;;;0.00;;
22841;SDS011;11587;47.064;15.444;2023-03-25T14:52:18;0.00;;;0.00;;
22841;SDS011;11587;47.064;15.444;2023-03-25T14:54:49;0.00;;;0.00;;
22841;SDS011;11587;47.064;15.444;2023-03-25T14:57:24;0.00;;;0.00;;
22841;SDS011;11587;47.064;15.444;2023-03-25T14:59:54;0.00;;;0.00;;
22841;SDS011;11587;47.064;15.444;2023-03-25T15:02:27;0.00;;;0.00;;
22841;SDS011;11587;47.064;15.444;2023-03-25T15:05:15;0.00;;;0.00;;
22841;SDS011;11587;47.064;15.444;2023-03-25T15:07:41;0.00;;;0.00;;
22841;SDS011;11587;47.064;15.444;2023-03-25T15:10:17;0.10;;;0.10;;
22841;SDS011;11587;47.064;15.444;2023-03-25T15:12:47;0.10;;;0.10;;
22841;SDS011;11587;47.064;15.444;2023-03-25T15:15:26;0.10;;;0.10;;
22841;SDS011;11587;47.064;15.444;2023-03-25T15:17:52;0.10;;;0.10;;
22841;SDS011;11587;47.064;15.444;2023-03-25T15:25:32;0.10;;;0.10;;
22841;SDS011;11587;47.064;15.444;2023-03-25T15:43:27;0.10;;;0.10;;
22841;SDS011;11587;47.064;15.444;2023-03-25T15:48:38;0.10;;;0.10;;
22841;SDS011;11587;47.064;15.444;2023-03-25T15:51:15;0.10;;;0.10;;
22841;SDS011;11587;47.064;15.444;2023-03-25T15:53:46;0.10;;;0.10;;
22841;SDS011;11587;47.064;15.444;2023-03-25T15:56:26;0.10;;;0.10;;
22841;SDS011;11587;47.064;15.444;2023-03-25T16:01:23;0.10;;;0.10;;
22841;SDS011;11587;47.064;15.444;2023-03-25T16:03:52;0.20;;;0.20;;
22841;SDS011;11587;47.064;15.444;2023-03-25T16:06:21;0.20;;;0.20;;
22841;SDS011;11587;47.064;15.444;2023-03-25T16:08:47;0.20;;;0.20;;
22841;SDS011;11587;47.064;15.444;2023-03-25T16:13:43;0.10;;;0.10;;
22841;SDS011;11587;47.064;15.444;2023-03-25T16:16:10;0.10;;;0.10;;
22841;SDS011;11587;47.064;15.444;2023-03-25T16:18:40;0.20;;;0.20;;
22841;SDS011;11587;47.064;15.444;2023-03-25T16:21:08;0.10;;;0.10;;
22841;SDS011;11587;47.064;15.444;2023-03-25T16:23:35;0.20;;;0.20;;
22841;SDS011;11587;47.064;15.444;2023-03-25T16:26:01;0.10;;;0.10;;
22841;SDS011;11587;47.064;15.444;2023-03-25T16:28:33;0.13;;;0.13;;
22841;SDS011;11587;47.064;15.444;2023-03-25T16:31:00;0.20;;;0.20;;
22841;SDS011;11587;47.064;15.444;2023-03-25T16:33:27;0.20;;;0.20;;
22841;SDS011;11587;47.064;15.444;2023-03-25T16:38:23;0.20;;;0.20;;
22841;SDS011;11587;47.064;15.444;2023-03-25T16:40:50;0.20;;;0.20;;
22841;SDS011;11587;47.064;15.444;2023-03-25T16:43:20;0.20;;;0.20;;
22841;SDS011;11587;47.064;15.444;2023-03-25T16:45:47;0.10;;;0.10;;
22841;SDS011;11587;47.064;15.444;2023-03-25T16:48:25;0.10;;;0.10;;
22841;SDS011;11587;47.064;15.444;2023-03-25T16:50:52;0.10;;;0.10;;
22841;SDS011;11587;47.064;15.444;2023-03-25T16:53:19;0.20;;;0.20;;
22841;SDS011;11587;47.064;15.444;2023-03-25T16:55:54;0.20;;;0.20;;
22841;SDS011;11587;47.064;15.444;2023-03-25T16:58:22;0.20;;;0.20;;
22841;SDS011;11587;47.064;15.444;2023-03-25T17:00:50;0.17;;;0.17;;
22841;SDS011;11587;47.064;15.444;2023-03-25T17:03:17;0.17;;;0.17;;
22841;SDS011;11587;47.064;15.444;2023-03-25T17:05:56;0.10;;;0.10;;
22841;SDS011;11587;47.064;15.444;2023-03-25T17:08:24;0.20;;;0.20;;
22841;SDS011;11587;47.064;15.444;2023-03-25T17:10:54;0.20;;;0.20;;
22841;SDS011;11587;47.064;15.444;2023-03-25T17:13:29;0.20;;;0.20;;
22841;SDS011;11587;47.064;15.444;2023-03-25T17:15:55;0.20;;;0.20;;
22841;SDS011;11587;47.064;15.444;2023-03-25T17:18:24;0.20;;;0.20;;
22841;SDS011;11587;47.064;15.444;2023-03-25T17:20:53;0.20;;;0.20;;
22841;SDS011;11587;47.064;15.444;2023-03-25T17:26:12;0.20;;;0.20;;
22841;SDS011;11587;47.064;15.444;2023-03-25T17:28:43;0.20;;;0.20;;
22841;SDS011;11587;47.064;15.444;2023-03-25T17:36:27;0.30;;;0.30;;
22841;SDS011;11587;47.064;15.444;2023-03-25T17:38:55;0.30;;;0.30;;
22841;SDS011;11587;47.064;15.444;2023-03-25T17:41:24;0.20;;;0.20;;
22841;SDS011;11587;47.064;15.444;2023-03-25T17:43:52;0.30;;;0.30;;
22841;SDS011;11587;47.064;15.444;2023-03-25T17:46:20;0.30;;;0.30;;
22841;SDS011;11587;47.064;15.444;2023-03-25T17:48:47;0.30;;;0.30;;
22841;SDS011;11587;47.064;15.444;2023-03-25T17:51:15;0.30;;;0.30;;